sensor_id;sensor_type;location;lat;lon;timestamp;temperature;humidity
20512;DHT22;10414;52.074;5.126;2023-11-19T00:00:07;14.10;99.90
20512;DHT22;10414;52.074;5.126;2023-11-19T00:02:37;14.10;99.90
20512;DHT22;10414;52.074;5.126;2023-11-19T00:05:04;14.10;99.90
20512;DHT22;10414;52.074;5.126;2023-11-19T00:07:35;14.10;99.90
20512;DHT22;10414;52.074;5.126;2023-11-19T00:10:09;14.10;99.90
20512;DHT22;10414;52.074;5.126;2023-11-19T00:12:37;14.20;99.90
20512;DHT22;10414;52.074;5.126;2023-11-19T00:15:06;14.10;99.90
20512;DHT22;10414;52.074;5.126;2023-11-19T00:17:36;14.10;99.90
20512;DHT22;10414;52.074;5.126;2023-11-19T00:20:04;14.20;99.90
20512;DHT22;10414;52.074;5.126;2023-11-19T00:22:34;14.20;99.90
20512;DHT22;10414;52.074;5.126;2023-11-19T00:25:01;14.10;99.90
20512;DHT22;10414;52.074;5.126;2023-11-19T00:27:29;14.10;99.90
20512;DHT22;10414;52.074;5.126;2023-11-19T00:29:55;14.20;99.90
20512;DHT22;10414;52.074;5.126;2023-11-19T00:32:22;14.10;99.90
20512;DHT22;10414;52.074;5.126;2023-11-19T00:34:49;14.20;99.90
20512;DHT22;10414;52.074;5.126;2023-11-19T00:37:16;14.20;99.90
20512;DHT22;10414;52.074;5.126;2023-11-19T00:39:45;14.20;99.90
20512;DHT22;10414;52.074;5.126;2023-11-19T00:42:12;14.20;99.90
20512;DHT22;10414;52.074;5.126;2023-11-19T00:44:39;14.20;99.90
20512;DHT22;10414;52.074;5.126;2023-11-19T00:47:08;14.20;99.90
20512;DHT22;10414;52.074;5.126;2023-11-19T00:49:35;14.20;99.90
20512;DHT22;10414;52.074;5.126;2023-11-19T00:52:07;14.20;99.90
20512;DHT22;10414;52.074;5.126;2023-11-19T00:54:34;14.10;99.90
20512;DHT22;10414;52.074;5.126;2023-11-19T00:57:04;14.10;99.90
20512;DHT22;10414;52.074;5.126;2023-11-19T00:59:31;14.00;99.90
20512;DHT22;10414;52.074;5.126;2023-11-19T01:01:58;14.00;99.90
20512;DHT22;10414;52.074;5.126;2023-11-19T01:04:36;14.00;99.90
20512;DHT22;10414;52.074;5.126;2023-11-19T01:07:06;13.90;99.90
20512;DHT22;10414;52.074;5.126;2023-11-19T01:09:38;13.90;99.90
20512;DHT22;10414;52.074;5.126;2023-11-19T01:12:09;14.00;99.90
20512;DHT22;10414;52.074;5.126;2023-11-19T01:14:36;14.00;99.90
20512;DHT22;10414;52.074;5.126;2023-11-19T01:17:06;14.00;99.90
20512;DHT22;10414;52.074;5.126;2023-11-19T01:19:37;14.10;99.90
20512;DHT22;10414;52.074;5.126;2023-11-19T01:22:09;14.00;99.90
20512;DHT22;10414;52.074;5.126;2023-11-19T01:24:35;14.10;99.90
20512;DHT22;10414;52.074;5.126;2023-11-19T01:27:04;14.10;99.90
20512;DHT22;10414;52.074;5.126;2023-11-19T01:29:33;14.00;99.90
20512;DHT22;10414;52.074;5.126;2023-11-19T01:31:59;14.00;99.90
20512;DHT22;10414;52.074;5.126;2023-11-19T01:34:26;14.00;99.90
20512;DHT22;10414;52.074;5.126;2023-11-19T01:36:54;13.90;99.90
20512;DHT22;10414;52.074;5.126;2023-11-19T01:39:23;13.80;99.90
20512;DHT22;10414;52.074;5.126;2023-11-19T01:41:51;13.70;99.90
20512;DHT22;10414;52.074;5.126;2023-11-19T01:44:18;13.70;99.90
20512;DHT22;10414;52.074;5.126;2023-11-19T01:46:47;13.60;99.90
20512;DHT22;10414;52.074;5.126;2023-11-19T01:49:15;13.50;99.90
20512;DHT22;10414;52.074;5.126;2023-11-19T01:51:46;13.40;99.90
20512;DHT22;10414;52.074;5.126;2023-11-19T01:54:14;13.30;99.90
20512;DHT22;10414;52.074;5.126;2023-11-19T01:56:41;13.30;99.90
20512;DHT22;10414;52.074;5.126;2023-11-19T01:59:16;13.20;99.90
20512;DHT22;10414;52.074;5.126;2023-11-19T02:01:43;13.20;99.90
20512;DHT22;10414;52.074;5.126;2023-11-19T02:04:12;13.10;99.90
20512;DHT22;10414;52.074;5.126;2023-11-19T02:06:40;13.00;99.90
20512;DHT22;10414;52.074;5.126;2023-11-19T02:09:08;13.10;99.90
20512;DHT22;10414;52.074;5.126;2023-11-19T02:11:35;13.00;99.90
20512;DHT22;10414;52.074;5.126;2023-11-19T02:14:02;12.90;99.90
20512;DHT22;10414;52.074;5.126;2023-11-19T02:16:30;12.80;99.90
20512;DHT22;10414;52.074;5.126;2023-11-19T02:18:56;12.90;99.90
20512;DHT22;10414;52.074;5.126;2023-11-19T02:21:27;12.70;99.90
20512;DHT22;10414;52.074;5.126;2023-11-19T02:23:58;12.80;99.90
20512;DHT22;10414;52.074;5.126;2023-11-19T02:26:29;12.70;99.90
20512;DHT22;10414;52.074;5.126;2023-11-19T02:29:01;12.70;99.90
20512;DHT22;10414;52.074;5.126;2023-11-19T02:31:29;12.70;99.90
20512;DHT22;10414;52.074;5.126;2023-11-19T02:34:00;12.80;99.90
20512;DHT22;10414;52.074;5.126;2023-11-19T02:36:28;12.80;99.90
20512;DHT22;10414;52.074;5.126;2023-11-19T02:38:54;12.80;99.90
20512;DHT22;10414;52.074;5.126;2023-11-19T02:41:21;12.70;99.90
20512;DHT22;10414;52.074;5.126;2023-11-19T02:43:48;12.70;99.90
20512;DHT22;10414;52.074;5.126;2023-11-19T02:46:18;12.70;99.90
20512;DHT22;10414;52.074;5.126;2023-11-19T02:48:45;12.70;99.90
20512;DHT22;10414;52.074;5.126;2023-11-19T02:51:14;12.70;99.90
20512;DHT22;10414;52.074;5.126;2023-11-19T02:53:41;12.70;99.90
20512;DHT22;10414;52.074;5.126;2023-11-19T02:56:10;12.70;99.90
20512;DHT22;10414;52.074;5.126;2023-11-19T02:58:45;12.60;99.90
20512;DHT22;10414;52.074;5.126;2023-11-19T03:01:14;12.50;99.90
20512;DHT22;10414;52.074;5.126;2023-11-19T03:03:50;12.50;99.90
20512;DHT22;10414;52.074;5.126;2023-11-19T03:06:20;12.40;99.90
20512;DHT22;10414;52.074;5.126;2023-11-19T03:08:48;12.40;99.90
20512;DHT22;10414;52.074;5.126;2023-11-19T03:11:15;12.30;99.90
20512;DHT22;10414;52.074;5.126;2023-11-19T03:13:41;12.30;99.90
20512;DHT22;10414;52.074;5.126;2023-11-19T03:16:11;12.20;99.90
20512;DHT22;10414;52.074;5.126;2023-11-19T03:18:40;12.20;99.90
20512;DHT22;10414;52.074;5.126;2023-11-19T03:21:08;12.10;99.90
20512;DHT22;10414;52.074;5.126;2023-11-19T03:23:35;12.10;99.90
20512;DHT22;10414;52.074;5.126;2023-11-19T03:26:05;12.10;99.90
20512;DHT22;10414;52.074;5.126;2023-11-19T03:28:33;12.10;99.90
20512;DHT22;10414;52.074;5.126;2023-11-19T03:31:01;12.00;99.90
20512;DHT22;10414;52.074;5.126;2023-11-19T03:33:27;12.10;99.90
20512;DHT22;10414;52.074;5.126;2023-11-19T03:35:54;12.10;99.90
20512;DHT22;10414;52.074;5.126;2023-11-19T03:38:24;12.00;99.90
20512;DHT22;10414;52.074;5.126;2023-11-19T03:40:51;12.00;99.90
20512;DHT22;10414;52.074;5.126;2023-11-19T03:43:18;11.90;99.90
20512;DHT22;10414;52.074;5.126;2023-11-19T03:45:47;11.90;99.90
20512;DHT22;10414;52.074;5.126;2023-11-19T03:48:20;11.90;99.90
20512;DHT22;10414;52.074;5.126;2023-11-19T03:50:49;11.80;99.90
20512;DHT22;10414;52.074;5.126;2023-11-19T03:53:16;11.90;99.90
20512;DHT22;10414;52.074;5.126;2023-11-19T03:55:50;11.80;99.90
20512;DHT22;10414;52.074;5.126;2023-11-19T03:58:17;11.80;99.90
20512;DHT22;10414;52.074;5.126;2023-11-19T04:00:47;11.90;99.90
20512;DHT22;10414;52.074;5.126;2023-11-19T04:03:17;11.90;99.90
20512;DHT22;10414;52.074;5.126;2023-11-19T04:05:45;11.80;99.90
20512;DHT22;10414;52.074;5.126;2023-11-19T04:08:12;11.80;99.90
20512;DHT22;10414;52.074;5.126;2023-11-19T04:10:38;11.90;99.90
20512;DHT22;10414;52.074;5.126;2023-11-19T04:13:09;11.90;99.90
20512;DHT22;10414;52.074;5.126;2023-11-19T04:15:38;11.80;99.90
20512;DHT22;10414;52.074;5.126;2023-11-19T04:18:05;11.80;99.90
20512;DHT22;10414;52.074;5.126;2023-11-19T04:20:32;11.80;99.90
20512;DHT22;10414;52.074;5.126;2023-11-19T04:22:59;11.80;99.90
20512;DHT22;10414;52.074;5.126;2023-11-19T04:25:27;11.90;99.90
20512;DHT22;10414;52.074;5.126;2023-11-19T04:27:54;11.80;99.90
20512;DHT22;10414;52.074;5.126;2023-11-19T04:33:07;11.80;99.90
20512;DHT22;10414;52.074;5.126;2023-11-19T04:35:34;11.80;99.90
20512;DHT22;10414;52.074;5.126;2023-11-19T04:38:01;11.70;99.90
20512;DHT22;10414;52.074;5.126;2023-11-19T04:40:28;11.70;99.90
20512;DHT22;10414;52.074;5.126;2023-11-19T04:42:55;11.80;99.90
20512;DHT22;10414;52.074;5.126;2023-11-19T04:45:25;11.80;99.90
20512;DHT22;10414;52.074;5.126;2023-11-19T04:47:52;11.90;99.90
20512;DHT22;10414;52.074;5.126;2023-11-19T04:50:19;11.90;99.90
20512;DHT22;10414;52.074;5.126;2023-11-19T04:52:46;11.80;99.90
20512;DHT22;10414;52.074;5.126;2023-11-19T04:55:13;11.80;99.90
20512;DHT22;10414;52.074;5.126;2023-11-19T04:57:40;11.70;99.90
20512;DHT22;10414;52.074;5.126;2023-11-19T05:00:09;11.70;99.90
20512;DHT22;10414;52.074;5.126;2023-11-19T05:02:38;11.70;99.90
20512;DHT22;10414;52.074;5.126;2023-11-19T05:05:05;11.70;99.90
20512;DHT22;10414;52.074;5.126;2023-11-19T05:07:34;11.70;99.90
20512;DHT22;10414;52.074;5.126;2023-11-19T05:10:01;11.60;99.90
20512;DHT22;10414;52.074;5.126;2023-11-19T05:12:29;11.60;99.90
20512;DHT22;10414;52.074;5.126;2023-11-19T05:15:08;11.60;99.90
20512;DHT22;10414;52.074;5.126;2023-11-19T05:17:38;11.70;99.90
20512;DHT22;10414;52.074;5.126;2023-11-19T05:20:06;11.70;99.90
20512;DHT22;10414;52.074;5.126;2023-11-19T05:22:38;11.70;99.90
20512;DHT22;10414;52.074;5.126;2023-11-19T05:25:06;11.70;99.90
20512;DHT22;10414;52.074;5.126;2023-11-19T05:27:36;11.70;99.90
20512;DHT22;10414;52.074;5.126;2023-11-19T05:30:09;11.60;99.90
20512;DHT22;10414;52.074;5.126;2023-11-19T05:32:39;11.60;99.90
20512;DHT22;10414;52.074;5.126;2023-11-19T05:35:07;11.50;99.90
20512;DHT22;10414;52.074;5.126;2023-11-19T05:37:36;11.50;99.90
20512;DHT22;10414;52.074;5.126;2023-11-19T05:40:03;11.50;99.90
20512;DHT22;10414;52.074;5.126;2023-11-19T05:42:37;11.50;99.90
20512;DHT22;10414;52.074;5.126;2023-11-19T05:45:05;11.50;99.90
20512;DHT22;10414;52.074;5.126;2023-11-19T05:47:33;11.50;99.90
20512;DHT22;10414;52.074;5.126;2023-11-19T05:50:01;11.50;99.90
20512;DHT22;10414;52.074;5.126;2023-11-19T05:52:30;11.50;99.90
20512;DHT22;10414;52.074;5.126;2023-11-19T05:54:59;11.60;99.90
20512;DHT22;10414;52.074;5.126;2023-11-19T05:57:27;11.50;99.90
20512;DHT22;10414;52.074;5.126;2023-11-19T05:59:57;11.50;99.90
20512;DHT22;10414;52.074;5.126;2023-11-19T06:02:25;11.60;99.90
20512;DHT22;10414;52.074;5.126;2023-11-19T06:04:52;11.60;99.90
20512;DHT22;10414;52.074;5.126;2023-11-19T06:07:21;11.60;99.90
20512;DHT22;10414;52.074;5.126;2023-11-19T06:09:50;11.50;99.90
20512;DHT22;10414;52.074;5.126;2023-11-19T06:12:17;11.50;99.90
20512;DHT22;10414;52.074;5.126;2023-11-19T06:14:44;11.50;99.90
20512;DHT22;10414;52.074;5.126;2023-11-19T06:17:11;11.60;99.90
20512;DHT22;10414;52.074;5.126;2023-11-19T06:19:38;11.60;99.90
20512;DHT22;10414;52.074;5.126;2023-11-19T06:22:05;11.50;99.90
20512;DHT22;10414;52.074;5.126;2023-11-19T06:24:33;11.50;99.90
20512;DHT22;10414;52.074;5.126;2023-11-19T06:27:02;11.40;99.90
20512;DHT22;10414;52.074;5.126;2023-11-19T06:29:32;11.40;99.90
20512;DHT22;10414;52.074;5.126;2023-11-19T06:31:59;11.40;99.90
20512;DHT22;10414;52.074;5.126;2023-11-19T06:34:26;11.30;99.90
20512;DHT22;10414;52.074;5.126;2023-11-19T06:36:53;11.30;99.90
20512;DHT22;10414;52.074;5.126;2023-11-19T06:39:20;11.30;99.90
20512;DHT22;10414;52.074;5.126;2023-11-19T06:41:48;11.30;99.90
20512;DHT22;10414;52.074;5.126;2023-11-19T06:44:15;11.30;99.90
20512;DHT22;10414;52.074;5.126;2023-11-19T06:46:44;11.30;99.90
20512;DHT22;10414;52.074;5.126;2023-11-19T06:49:14;11.20;99.90
20512;DHT22;10414;52.074;5.126;2023-11-19T06:51:42;11.30;99.90
20512;DHT22;10414;52.074;5.126;2023-11-19T06:54:09;11.30;99.90
20512;DHT22;10414;52.074;5.126;2023-11-19T06:56:36;11.30;99.90
20512;DHT22;10414;52.074;5.126;2023-11-19T06:59:05;11.40;99.90
20512;DHT22;10414;52.074;5.126;2023-11-19T07:01:35;11.40;99.90
20512;DHT22;10414;52.074;5.126;2023-11-19T07:04:07;11.40;99.90
20512;DHT22;10414;52.074;5.126;2023-11-19T07:06:35;11.40;99.90
20512;DHT22;10414;52.074;5.126;2023-11-19T07:09:02;11.40;99.90
20512;DHT22;10414;52.074;5.126;2023-11-19T07:11:35;11.50;99.90
20512;DHT22;10414;52.074;5.126;2023-11-19T07:14:08;11.60;99.90
20512;DHT22;10414;52.074;5.126;2023-11-19T07:16:35;11.60;99.90
20512;DHT22;10414;52.074;5.126;2023-11-19T07:19:12;11.60;99.90
20512;DHT22;10414;52.074;5.126;2023-11-19T07:21:41;11.60;99.90
20512;DHT22;10414;52.074;5.126;2023-11-19T07:24:10;11.60;99.90
20512;DHT22;10414;52.074;5.126;2023-11-19T07:26:42;11.60;99.90
20512;DHT22;10414;52.074;5.126;2023-11-19T07:29:10;11.60;99.90
20512;DHT22;10414;52.074;5.126;2023-11-19T07:31:37;11.70;99.90
20512;DHT22;10414;52.074;5.126;2023-11-19T07:34:04;11.80;99.90
20512;DHT22;10414;52.074;5.126;2023-11-19T07:36:32;11.80;99.90
20512;DHT22;10414;52.074;5.126;2023-11-19T07:39:01;11.90;99.90
20512;DHT22;10414;52.074;5.126;2023-11-19T07:41:28;11.90;99.90
20512;DHT22;10414;52.074;5.126;2023-11-19T07:43:55;12.00;99.90
20512;DHT22;10414;52.074;5.126;2023-11-19T07:46:23;12.10;99.90
20512;DHT22;10414;52.074;5.126;2023-11-19T07:48:51;12.20;99.90
20512;DHT22;10414;52.074;5.126;2023-11-19T07:51:18;12.30;99.90
20512;DHT22;10414;52.074;5.126;2023-11-19T07:53:44;12.30;99.90
20512;DHT22;10414;52.074;5.126;2023-11-19T07:56:11;12.40;99.90
20512;DHT22;10414;52.074;5.126;2023-11-19T07:58:38;12.50;99.90
20512;DHT22;10414;52.074;5.126;2023-11-19T08:01:07;12.70;99.90
20512;DHT22;10414;52.074;5.126;2023-11-19T08:03:35;12.80;99.90
20512;DHT22;10414;52.074;5.126;2023-11-19T08:06:03;12.80;99.90
20512;DHT22;10414;52.074;5.126;2023-11-19T08:08:30;12.60;99.90
20512;DHT22;10414;52.074;5.126;2023-11-19T08:10:58;12.50;99.90
20512;DHT22;10414;52.074;5.126;2023-11-19T08:13:25;12.50;99.90
20512;DHT22;10414;52.074;5.126;2023-11-19T08:15:52;12.50;99.90
20512;DHT22;10414;52.074;5.126;2023-11-19T08:18:19;12.50;99.90
20512;DHT22;10414;52.074;5.126;2023-11-19T08:20:49;12.50;99.90
20512;DHT22;10414;52.074;5.126;2023-11-19T08:23:19;12.60;99.90
20512;DHT22;10414;52.074;5.126;2023-11-19T08:25:46;12.50;99.90
20512;DHT22;10414;52.074;5.126;2023-11-19T08:28:13;12.60;99.90
20512;DHT22;10414;52.074;5.126;2023-11-19T08:30:42;12.80;99.90
20512;DHT22;10414;52.074;5.126;2023-11-19T08:33:10;13.00;99.90
20512;DHT22;10414;52.074;5.126;2023-11-19T08:35:41;13.10;99.90
20512;DHT22;10414;52.074;5.126;2023-11-19T08:38:09;13.20;99.90
20512;DHT22;10414;52.074;5.126;2023-11-19T08:40:36;13.20;99.90
20512;DHT22;10414;52.074;5.126;2023-11-19T08:43:07;13.10;99.90
20512;DHT22;10414;52.074;5.126;2023-11-19T08:45:34;13.30;99.90
20512;DHT22;10414;52.074;5.126;2023-11-19T08:48:01;13.40;99.90
20512;DHT22;10414;52.074;5.126;2023-11-19T08:50:28;13.70;99.90
20512;DHT22;10414;52.074;5.126;2023-11-19T08:52:59;14.00;99.90
20512;DHT22;10414;52.074;5.126;2023-11-19T08:55:27;13.60;99.90
20512;DHT22;10414;52.074;5.126;2023-11-19T08:57:54;13.30;99.90
20512;DHT22;10414;52.074;5.126;2023-11-19T09:00:22;13.30;99.90
20512;DHT22;10414;52.074;5.126;2023-11-19T09:02:49;13.30;99.90
20512;DHT22;10414;52.074;5.126;2023-11-19T09:05:15;13.30;99.90
20512;DHT22;10414;52.074;5.126;2023-11-19T09:07:42;13.40;99.90
20512;DHT22;10414;52.074;5.126;2023-11-19T09:10:10;13.50;99.90
20512;DHT22;10414;52.074;5.126;2023-11-19T09:12:39;13.30;99.90
20512;DHT22;10414;52.074;5.126;2023-11-19T09:15:07;13.20;99.90
20512;DHT22;10414;52.074;5.126;2023-11-19T09:17:36;13.20;99.90
20512;DHT22;10414;52.074;5.126;2023-11-19T09:20:06;13.10;99.90
20512;DHT22;10414;52.074;5.126;2023-11-19T09:22:33;13.10;99.90
20512;DHT22;10414;52.074;5.126;2023-11-19T09:25:00;13.10;99.90
20512;DHT22;10414;52.074;5.126;2023-11-19T09:27:27;13.10;99.90
20512;DHT22;10414;52.074;5.126;2023-11-19T09:29:57;13.20;99.90
20512;DHT22;10414;52.074;5.126;2023-11-19T09:32:24;13.50;99.90
20512;DHT22;10414;52.074;5.126;2023-11-19T09:34:51;13.60;99.90
20512;DHT22;10414;52.074;5.126;2023-11-19T09:37:18;13.90;99.90
20512;DHT22;10414;52.074;5.126;2023-11-19T09:39:45;14.00;99.90
20512;DHT22;10414;52.074;5.126;2023-11-19T09:42:15;14.10;99.90
20512;DHT22;10414;52.074;5.126;2023-11-19T09:44:43;14.00;99.90
20512;DHT22;10414;52.074;5.126;2023-11-19T09:47:14;13.90;99.90
20512;DHT22;10414;52.074;5.126;2023-11-19T09:49:41;13.90;99.90
20512;DHT22;10414;52.074;5.126;2023-11-19T09:52:09;14.10;99.90
20512;DHT22;10414;52.074;5.126;2023-11-19T09:54:38;13.90;99.90
20512;DHT22;10414;52.074;5.126;2023-11-19T09:57:07;13.80;99.90
20512;DHT22;10414;52.074;5.126;2023-11-19T09:59:36;13.70;99.90
20512;DHT22;10414;52.074;5.126;2023-11-19T10:02:03;13.90;99.90
20512;DHT22;10414;52.074;5.126;2023-11-19T10:04:33;14.10;99.90
20512;DHT22;10414;52.074;5.126;2023-11-19T10:07:01;14.10;99.90
20512;DHT22;10414;52.074;5.126;2023-11-19T10:09:28;14.40;99.90
20512;DHT22;10414;52.074;5.126;2023-11-19T10:11:55;14.90;99.90
20512;DHT22;10414;52.074;5.126;2023-11-19T10:14:23;15.50;99.90
20512;DHT22;10414;52.074;5.126;2023-11-19T10:16:50;15.60;99.90
20512;DHT22;10414;52.074;5.126;2023-11-19T10:19:21;15.10;99.90
20512;DHT22;10414;52.074;5.126;2023-11-19T10:21:49;15.30;99.90
20512;DHT22;10414;52.074;5.126;2023-11-19T10:24:16;15.70;99.90
20512;DHT22;10414;52.074;5.126;2023-11-19T10:26:57;15.80;99.90
20512;DHT22;10414;52.074;5.126;2023-11-19T10:29:26;15.80;99.90
20512;DHT22;10414;52.074;5.126;2023-11-19T10:31:57;15.80;99.90
20512;DHT22;10414;52.074;5.126;2023-11-19T10:34:26;15.70;99.90
20512;DHT22;10414;52.074;5.126;2023-11-19T10:36:54;15.60;99.90
20512;DHT22;10414;52.074;5.126;2023-11-19T10:39:23;15.40;99.90
20512;DHT22;10414;52.074;5.126;2023-11-19T10:41:50;15.60;99.90
20512;DHT22;10414;52.074;5.126;2023-11-19T10:44:33;15.90;99.90
20512;DHT22;10414;52.074;5.126;2023-11-19T10:47:01;16.60;99.90
20512;DHT22;10414;52.074;5.126;2023-11-19T10:49:28;16.50;99.90
20512;DHT22;10414;52.074;5.126;2023-11-19T10:51:59;16.50;99.90
20512;DHT22;10414;52.074;5.126;2023-11-19T10:54:26;16.70;99.90
20512;DHT22;10414;52.074;5.126;2023-11-19T10:56:55;17.10;99.90
20512;DHT22;10414;52.074;5.126;2023-11-19T10:59:27;16.70;99.90
20512;DHT22;10414;52.074;5.126;2023-11-19T11:01:56;16.70;99.90
20512;DHT22;10414;52.074;5.126;2023-11-19T11:04:24;16.60;99.90
20512;DHT22;10414;52.074;5.126;2023-11-19T11:06:54;16.30;99.90
20512;DHT22;10414;52.074;5.126;2023-11-19T11:09:26;15.70;99.90
20512;DHT22;10414;52.074;5.126;2023-11-19T11:11:54;15.80;99.90
20512;DHT22;10414;52.074;5.126;2023-11-19T11:14:24;15.50;99.90
20512;DHT22;10414;52.074;5.126;2023-11-19T11:16:53;15.20;99.90
20512;DHT22;10414;52.074;5.126;2023-11-19T11:19:20;15.00;99.90
20512;DHT22;10414;52.074;5.126;2023-11-19T11:21:53;14.90;99.90
20512;DHT22;10414;52.074;5.126;2023-11-19T11:24:43;14.80;99.90
20512;DHT22;10414;52.074;5.126;2023-11-19T11:27:48;14.70;99.90
20512;DHT22;10414;52.074;5.126;2023-11-19T11:30:24;14.70;99.90
20512;DHT22;10414;52.074;5.126;2023-11-19T11:33:04;14.40;99.90
20512;DHT22;10414;52.074;5.126;2023-11-19T11:35:41;14.20;99.90
20512;DHT22;10414;52.074;5.126;2023-11-19T11:38:14;14.20;99.90
20512;DHT22;10414;52.074;5.126;2023-11-19T11:40:42;14.40;99.90
20512;DHT22;10414;52.074;5.126;2023-11-19T11:46:06;14.50;99.90
20512;DHT22;10414;52.074;5.126;2023-11-19T11:48:35;14.30;99.90
20512;DHT22;10414;52.074;5.126;2023-11-19T11:51:12;14.40;99.90
20512;DHT22;10414;52.074;5.126;2023-11-19T11:53:41;14.40;99.90
20512;DHT22;10414;52.074;5.126;2023-11-19T11:56:10;14.30;99.90
20512;DHT22;10414;52.074;5.126;2023-11-19T11:58:37;14.40;99.90
20512;DHT22;10414;52.074;5.126;2023-11-19T12:01:07;14.50;99.90
20512;DHT22;10414;52.074;5.126;2023-11-19T12:03:35;14.50;99.90
20512;DHT22;10414;52.074;5.126;2023-11-19T12:06:05;14.60;99.90
20512;DHT22;10414;52.074;5.126;2023-11-19T12:08:34;14.80;99.90
20512;DHT22;10414;52.074;5.126;2023-11-19T12:11:02;15.00;99.90
20512;DHT22;10414;52.074;5.126;2023-11-19T12:13:47;14.90;99.90
20512;DHT22;10414;52.074;5.126;2023-11-19T12:16:22;14.90;99.90
20512;DHT22;10414;52.074;5.126;2023-11-19T12:18:49;15.10;99.90
20512;DHT22;10414;52.074;5.126;2023-11-19T12:21:29;15.30;99.90
20512;DHT22;10414;52.074;5.126;2023-11-19T12:23:58;15.20;99.90
20512;DHT22;10414;52.074;5.126;2023-11-19T12:26:34;14.90;99.90
20512;DHT22;10414;52.074;5.126;2023-11-19T12:29:02;15.00;99.90
20512;DHT22;10414;52.074;5.126;2023-11-19T12:31:35;14.90;99.90
20512;DHT22;10414;52.074;5.126;2023-11-19T12:34:08;15.10;99.90
20512;DHT22;10414;52.074;5.126;2023-11-19T12:36:38;15.20;99.90
20512;DHT22;10414;52.074;5.126;2023-11-19T12:39:05;15.00;99.90
20512;DHT22;10414;52.074;5.126;2023-11-19T12:41:35;14.90;99.90
20512;DHT22;10414;52.074;5.126;2023-11-19T12:44:18;14.80;99.90
20512;DHT22;10414;52.074;5.126;2023-11-19T12:46:45;14.70;99.90
20512;DHT22;10414;52.074;5.126;2023-11-19T12:49:14;14.70;99.90
20512;DHT22;10414;52.074;5.126;2023-11-19T12:51:41;14.70;99.90
20512;DHT22;10414;52.074;5.126;2023-11-19T12:54:08;14.70;99.90
20512;DHT22;10414;52.074;5.126;2023-11-19T12:56:35;14.60;99.90
20512;DHT22;10414;52.074;5.126;2023-11-19T12:59:20;14.60;99.90
20512;DHT22;10414;52.074;5.126;2023-11-19T13:01:54;14.70;99.90
20512;DHT22;10414;52.074;5.126;2023-11-19T13:04:21;14.60;99.90
20512;DHT22;10414;52.074;5.126;2023-11-19T13:06:48;14.50;99.90
20512;DHT22;10414;52.074;5.126;2023-11-19T13:09:39;14.60;99.90
20512;DHT22;10414;52.074;5.126;2023-11-19T13:12:15;14.20;99.90
20512;DHT22;10414;52.074;5.126;2023-11-19T13:14:43;14.00;99.90
20512;DHT22;10414;52.074;5.126;2023-11-19T13:17:15;13.90;99.90
20512;DHT22;10414;52.074;5.126;2023-11-19T13:19:42;13.90;99.90
20512;DHT22;10414;52.074;5.126;2023-11-19T13:22:09;13.80;99.90
20512;DHT22;10414;52.074;5.126;2023-11-19T13:24:36;13.90;99.90
20512;DHT22;10414;52.074;5.126;2023-11-19T13:27:03;13.90;99.90
20512;DHT22;10414;52.074;5.126;2023-11-19T13:29:30;13.90;99.90
20512;DHT22;10414;52.074;5.126;2023-11-19T13:32:00;13.90;99.90
20512;DHT22;10414;52.074;5.126;2023-11-19T13:34:30;14.00;99.90
20512;DHT22;10414;52.074;5.126;2023-11-19T13:36:56;14.10;99.90
20512;DHT22;10414;52.074;5.126;2023-11-19T13:39:25;13.90;99.90
20512;DHT22;10414;52.074;5.126;2023-11-19T13:42:09;13.80;99.90
20512;DHT22;10414;52.074;5.126;2023-11-19T13:44:42;13.80;99.90
20512;DHT22;10414;52.074;5.126;2023-11-19T13:47:10;13.70;99.90
20512;DHT22;10414;52.074;5.126;2023-11-19T13:49:39;13.80;99.90
20512;DHT22;10414;52.074;5.126;2023-11-19T13:52:06;13.90;99.90
20512;DHT22;10414;52.074;5.126;2023-11-19T13:54:33;13.90;99.90
20512;DHT22;10414;52.074;5.126;2023-11-19T13:57:04;13.90;99.90
20512;DHT22;10414;52.074;5.126;2023-11-19T13:59:39;13.90;99.90
20512;DHT22;10414;52.074;5.126;2023-11-19T14:02:06;13.80;99.90
20512;DHT22;10414;52.074;5.126;2023-11-19T14:04:34;13.60;99.90
20512;DHT22;10414;52.074;5.126;2023-11-19T14:07:01;13.40;99.90
20512;DHT22;10414;52.074;5.126;2023-11-19T14:09:28;13.30;99.90
20512;DHT22;10414;52.074;5.126;2023-11-19T14:11:58;13.30;99.90
20512;DHT22;10414;52.074;5.126;2023-11-19T14:14:25;13.20;99.90
20512;DHT22;10414;52.074;5.126;2023-11-19T14:16:54;13.30;99.90
20512;DHT22;10414;52.074;5.126;2023-11-19T14:19:21;13.40;99.90
20512;DHT22;10414;52.074;5.126;2023-11-19T14:21:55;13.40;99.90
20512;DHT22;10414;52.074;5.126;2023-11-19T14:24:23;13.50;99.90
20512;DHT22;10414;52.074;5.126;2023-11-19T14:26:51;13.50;99.90
20512;DHT22;10414;52.074;5.126;2023-11-19T14:29:18;13.50;99.90
20512;DHT22;10414;52.074;5.126;2023-11-19T14:31:45;13.50;99.90
20512;DHT22;10414;52.074;5.126;2023-11-19T14:34:11;13.50;99.90
20512;DHT22;10414;52.074;5.126;2023-11-19T14:36:38;13.60;99.90
20512;DHT22;10414;52.074;5.126;2023-11-19T14:39:08;13.60;99.90
20512;DHT22;10414;52.074;5.126;2023-11-19T14:41:34;13.50;99.90
20512;DHT22;10414;52.074;5.126;2023-11-19T14:44:01;13.50;99.90
20512;DHT22;10414;52.074;5.126;2023-11-19T14:46:31;13.50;99.90
20512;DHT22;10414;52.074;5.126;2023-11-19T14:48:58;13.50;99.90
20512;DHT22;10414;52.074;5.126;2023-11-19T14:51:26;13.50;99.90
20512;DHT22;10414;52.074;5.126;2023-11-19T14:53:52;13.50;99.90
20512;DHT22;10414;52.074;5.126;2023-11-19T14:56:20;13.40;99.90
20512;DHT22;10414;52.074;5.126;2023-11-19T14:58:48;13.40;99.90
20512;DHT22;10414;52.074;5.126;2023-11-19T15:01:16;13.40;99.90
20512;DHT22;10414;52.074;5.126;2023-11-19T15:03:44;13.40;99.90
20512;DHT22;10414;52.074;5.126;2023-11-19T15:06:13;13.40;99.90
20512;DHT22;10414;52.074;5.126;2023-11-19T15:08:43;13.40;99.90
20512;DHT22;10414;52.074;5.126;2023-11-19T15:11:13;13.40;99.90
20512;DHT22;10414;52.074;5.126;2023-11-19T15:13:41;13.50;99.90
20512;DHT22;10414;52.074;5.126;2023-11-19T15:16:08;13.50;99.90
20512;DHT22;10414;52.074;5.126;2023-11-19T15:18:36;13.50;99.90
20512;DHT22;10414;52.074;5.126;2023-11-19T15:21:04;13.50;99.90
20512;DHT22;10414;52.074;5.126;2023-11-19T15:23:33;13.50;99.90
20512;DHT22;10414;52.074;5.126;2023-11-19T15:26:00;13.50;99.90
20512;DHT22;10414;52.074;5.126;2023-11-19T15:28:27;13.60;99.90
20512;DHT22;10414;52.074;5.126;2023-11-19T15:33:43;13.50;99.90
20512;DHT22;10414;52.074;5.126;2023-11-19T15:36:10;13.50;99.90
20512;DHT22;10414;52.074;5.126;2023-11-19T15:38:37;13.40;99.90
20512;DHT22;10414;52.074;5.126;2023-11-19T15:41:04;13.40;99.90
20512;DHT22;10414;52.074;5.126;2023-11-19T15:43:35;13.40;99.90
20512;DHT22;10414;52.074;5.126;2023-11-19T15:46:07;13.40;99.90
20512;DHT22;10414;52.074;5.126;2023-11-19T15:48:37;13.40;99.90